createdAt,value
2022-10-14T00:00:42.156Z,38.40
2022-10-14T00:03:08.908Z,39.40
2022-10-14T00:05:40.100Z,38.13
2022-10-14T00:08:06.825Z,37.80
2022-10-14T00:10:37.492Z,34.40
2022-10-14T00:13:04.042Z,35.65
2022-10-14T00:15:30.534Z,38.58
2022-10-14T00:17:57.369Z,37.92
2022-10-14T00:20:24.130Z,35.70
2022-10-14T00:22:50.745Z,37.10
2022-10-14T00:25:17.410Z,37.55
2022-10-14T00:27:43.865Z,38.17
2022-10-14T00:30:11.942Z,37.05
2022-10-14T00:32:38.554Z,36.93
2022-10-14T00:35:05.572Z,38.22
2022-10-14T00:37:32.041Z,38.00
2022-10-14T00:39:58.463Z,42.03
2022-10-14T00:42:25.318Z,38.42
2022-10-14T00:44:51.784Z,38.50
2022-10-14T00:47:18.605Z,36.53
2022-10-14T00:49:45.376Z,39.65
2022-10-14T00:52:16.323Z,38.58
2022-10-14T00:54:48.418Z,35.67
2022-10-14T00:57:15.770Z,38.93
2022-10-14T00:59:42.508Z,39.67
2022-10-14T01:02:09.347Z,39.83
2022-10-14T01:04:39.660Z,39.42
2022-10-14T01:07:34.154Z,40.03
2022-10-14T01:10:13.807Z,38.43
2022-10-14T01:12:46.656Z,39.90
2022-10-14T01:15:19.235Z,36.65
2022-10-14T01:18:13.478Z,37.35
2022-10-14T01:20:57.693Z,41.80
2022-10-14T01:24:02.709Z,35.50
2022-10-14T01:26:48.517Z,37.55
2022-10-14T01:29:52.435Z,37.60
2022-10-14T01:33:05.823Z,35.42
2022-10-14T01:35:55.878Z,37.30
2022-10-14T01:38:29.707Z,33.97
2022-10-14T01:41:02.432Z,35.17
2022-10-14T01:43:31.775Z,33.72
2022-10-14T01:46:02.482Z,34.25
2022-10-14T01:48:33.215Z,36.78
2022-10-14T01:51:02.912Z,38.50
2022-10-14T01:53:35.287Z,36.95
2022-10-14T01:56:02.712Z,37.10
2022-10-14T01:58:31.696Z,34.13
2022-10-14T02:00:58.426Z,39.42
2022-10-14T02:03:24.973Z,36.60
2022-10-14T02:06:03.977Z,37.92
2022-10-14T02:08:41.695Z,39.45
2022-10-14T02:11:16.576Z,36.60
2022-10-14T02:13:49.427Z,37.42
2022-10-14T02:16:24.684Z,36.47
2022-10-14T02:19:14.658Z,39.88
2022-10-14T02:21:51.808Z,36.33
2022-10-14T02:24:38.476Z,40.00
2022-10-14T02:27:13.376Z,36.17
2022-10-14T02:29:42.674Z,36.33
2022-10-14T02:32:11.232Z,39.90
2022-10-14T02:34:38.010Z,38.20
2022-10-14T02:37:04.858Z,38.75
2022-10-14T02:39:35.790Z,33.97
2022-10-14T02:42:02.585Z,37.37
2022-10-14T02:44:29.397Z,35.72
2022-10-14T02:46:56.401Z,36.63
2022-10-14T02:49:23.239Z,38.80
2022-10-14T02:51:49.708Z,36.60
2022-10-14T02:54:16.380Z,39.27
2022-10-14T02:56:42.914Z,42.88
2022-10-14T02:59:09.541Z,37.20
2022-10-14T03:01:37.781Z,40.45
2022-10-14T03:04:04.674Z,40.63
2022-10-14T03:06:31.309Z,38.70
2022-10-14T03:08:57.813Z,37.92
2022-10-14T03:11:24.267Z,39.65
2022-10-14T03:13:50.798Z,40.65
2022-10-14T03:16:17.381Z,40.70
2022-10-14T03:18:43.921Z,38.03
2022-10-14T03:21:10.764Z,36.22
2022-10-14T03:23:37.286Z,39.65
2022-10-14T03:26:04.593Z,35.28
2022-10-14T03:28:31.094Z,31.83
2022-10-14T03:30:57.636Z,34.27
2022-10-14T03:33:26.315Z,36.63
2022-10-14T03:35:53.340Z,33.20
2022-10-14T03:38:19.820Z,33.83
2022-10-14T03:40:49.074Z,33.88
2022-10-14T03:43:15.606Z,34.77
2022-10-14T03:45:44.959Z,34.20
2022-10-14T03:48:11.946Z,35.45
2022-10-14T03:50:38.426Z,36.28
2022-10-14T03:53:04.911Z,32.75
2022-10-14T03:55:31.413Z,36.67
2022-10-14T03:57:57.846Z,35.25
2022-10-14T04:00:24.593Z,32.55
2022-10-14T04:02:51.008Z,35.15
2022-10-14T04:05:17.549Z,37.47
2022-10-14T04:07:44.036Z,35.47
2022-10-14T04:10:10.605Z,35.30
2022-10-14T04:12:39.753Z,37.72
2022-10-14T04:15:09.545Z,35.95
2022-10-14T04:17:36.178Z,40.78
2022-10-14T04:20:02.757Z,36.30
2022-10-14T04:22:29.962Z,36.50
2022-10-14T04:24:56.387Z,39.25
2022-10-14T04:27:22.864Z,36.55
2022-10-14T04:29:50.092Z,38.85
2022-10-14T04:32:16.654Z,40.63
2022-10-14T04:34:43.148Z,41.60
2022-10-14T04:37:09.991Z,44.88
2022-10-14T04:39:36.571Z,39.63
2022-10-14T04:42:03.331Z,40.30
2022-10-14T04:44:29.843Z,40.27
2022-10-14T04:46:56.385Z,43.70
2022-10-14T04:49:22.870Z,41.70
2022-10-14T04:51:49.508Z,41.72
2022-10-14T04:54:16.278Z,42.67
2022-10-14T04:56:42.876Z,49.27
2022-10-14T04:59:10.931Z,45.50
2022-10-14T05:01:37.643Z,44.60
2022-10-14T05:04:04.279Z,40.80
2022-10-14T05:06:30.824Z,38.40
2022-10-14T05:08:57.540Z,40.50
2022-10-14T05:11:24.335Z,41.33
2022-10-14T05:13:50.820Z,42.78
2022-10-14T05:16:17.337Z,46.33
2022-10-14T05:18:43.827Z,44.63
2022-10-14T05:21:10.412Z,42.90
2022-10-14T05:23:36.961Z,43.90
2022-10-14T05:26:03.623Z,42.10
2022-10-14T05:28:31.028Z,41.72
2022-10-14T05:30:57.586Z,41.08
2022-10-14T05:33:24.115Z,42.30
2022-10-14T05:35:59.341Z,40.05
2022-10-14T05:38:26.234Z,42.20
2022-10-14T05:40:57.174Z,43.00
2022-10-14T05:43:29.379Z,41.28
2022-10-14T05:45:58.456Z,42.10
2022-10-14T05:48:25.040Z,40.65
2022-10-14T05:50:51.550Z,41.17
2022-10-14T05:53:18.053Z,41.65
2022-10-14T05:55:44.605Z,40.20
2022-10-14T05:58:11.136Z,39.07
2022-10-14T06:00:37.730Z,38.88
2022-10-14T06:03:04.366Z,40.42
2022-10-14T06:05:30.902Z,39.97
2022-10-14T06:07:57.588Z,39.03
2022-10-14T06:10:24.129Z,39.70
2022-10-14T06:12:50.713Z,40.10
2022-10-14T06:15:17.310Z,35.97
2022-10-14T06:17:43.795Z,41.70
2022-10-14T06:20:10.871Z,40.08
2022-10-14T06:22:37.397Z,38.90
2022-10-14T06:25:04.709Z,40.70
2022-10-14T06:27:31.414Z,38.83
2022-10-14T06:29:57.891Z,36.70
2022-10-14T06:32:24.800Z,36.90
2022-10-14T06:34:51.434Z,36.73
2022-10-14T06:37:17.987Z,39.97
2022-10-14T06:39:45.170Z,39.63
2022-10-14T06:42:13.251Z,39.35
2022-10-14T06:44:39.996Z,35.03
2022-10-14T06:47:07.906Z,38.97
2022-10-14T06:49:34.714Z,38.78
2022-10-14T06:52:01.280Z,38.53
2022-10-14T06:54:27.816Z,39.17
2022-10-14T06:56:54.360Z,38.97
2022-10-14T06:59:20.997Z,39.67
2022-10-14T07:01:47.670Z,38.95
2022-10-14T07:04:14.249Z,39.53
2022-10-14T07:06:41.579Z,42.38
2022-10-14T07:09:08.825Z,39.53
2022-10-14T07:11:35.491Z,41.13
2022-10-14T07:14:02.302Z,39.60
2022-10-14T07:16:28.980Z,37.35
2022-10-14T07:18:55.480Z,44.35
2022-10-14T07:21:22.026Z,42.35
2022-10-14T07:23:48.651Z,40.27
2022-10-14T07:26:15.142Z,40.85
2022-10-14T07:28:41.644Z,40.17
2022-10-14T07:31:10.082Z,39.58
2022-10-14T07:36:17.261Z,37.50
2022-10-14T07:38:46.558Z,39.25
2022-10-14T07:41:18.343Z,41.53
2022-10-14T07:43:46.586Z,43.92
2022-10-14T07:46:14.805Z,44.75
2022-10-14T07:48:56.285Z,41.83
2022-10-14T07:51:24.037Z,39.05
2022-10-14T07:53:52.814Z,40.20
2022-10-14T07:56:19.510Z,41.00
2022-10-14T07:58:46.571Z,36.78
2022-10-14T08:01:15.509Z,36.43
2022-10-14T08:03:43.315Z,37.70
2022-10-14T08:06:10.141Z,39.78
2022-10-14T08:08:36.991Z,36.05
2022-10-14T08:11:10.110Z,37.45
2022-10-14T08:13:39.398Z,38.33
2022-10-14T08:16:20.782Z,36.22
2022-10-14T08:18:47.785Z,33.50
2022-10-14T08:21:15.323Z,33.97
2022-10-14T08:23:42.098Z,33.70
2022-10-14T08:26:35.084Z,33.20
2022-10-14T08:29:04.476Z,29.17
2022-10-14T08:31:31.351Z,27.63
2022-10-14T08:33:58.019Z,24.65
2022-10-14T08:36:24.930Z,24.10
2022-10-14T08:38:53.722Z,25.03
2022-10-14T08:41:40.253Z,23.73
2022-10-14T08:44:12.354Z,26.55
2022-10-14T08:46:52.423Z,27.50
2022-10-14T08:49:22.394Z,24.33
2022-10-14T08:51:54.966Z,24.07
2022-10-14T08:54:34.460Z,26.05
2022-10-14T08:57:02.406Z,26.08
2022-10-14T08:59:29.437Z,25.73
2022-10-14T09:02:04.333Z,25.60
2022-10-14T09:04:35.990Z,23.67
2022-10-14T09:07:03.121Z,22.02
2022-10-14T09:09:49.074Z,23.65
2022-10-14T09:12:26.347Z,24.88
2022-10-14T09:15:03.586Z,23.90
2022-10-14T09:17:37.983Z,23.97
2022-10-14T09:20:21.553Z,27.17
2022-10-14T09:22:58.037Z,22.33
2022-10-14T09:25:24.633Z,24.60
2022-10-14T09:27:51.298Z,20.35
2022-10-14T09:30:18.537Z,22.20
2022-10-14T09:32:49.562Z,22.42
2022-10-14T09:35:30.639Z,21.42
2022-10-14T09:37:57.347Z,20.05
2022-10-14T09:40:26.566Z,20.38
2022-10-14T09:43:09.886Z,19.30
2022-10-14T09:46:01.465Z,23.52
2022-10-14T09:48:49.814Z,17.17
2022-10-14T09:51:23.739Z,18.30
2022-10-14T09:53:56.072Z,21.17
2022-10-14T09:56:40.731Z,17.13
2022-10-14T09:59:20.940Z,21.77
2022-10-14T10:01:53.037Z,17.33
2022-10-14T10:04:31.534Z,17.80
2022-10-14T10:06:59.596Z,18.95
2022-10-14T10:09:26.655Z,17.17
2022-10-14T10:11:54.478Z,17.38
2022-10-14T10:14:33.080Z,19.83
2022-10-14T10:17:08.417Z,16.83
2022-10-14T10:19:37.533Z,15.20
2022-10-14T10:25:12.809Z,15.80
2022-10-14T10:27:40.608Z,18.95
2022-10-14T10:30:27.923Z,18.70
2022-10-14T10:33:03.555Z,16.13
2022-10-14T10:35:52.106Z,15.33
2022-10-14T10:38:31.026Z,17.50
2022-10-14T10:41:19.363Z,16.40
2022-10-14T10:43:51.887Z,17.73
2022-10-14T10:46:40.434Z,19.95
2022-10-14T10:49:16.576Z,17.30
2022-10-14T10:51:53.334Z,19.85
2022-10-14T10:54:47.177Z,16.30
2022-10-14T10:57:49.825Z,16.10
2022-10-14T11:03:23.478Z,13.73
2022-10-14T11:06:10.686Z,14.45
2022-10-14T11:09:14.152Z,15.82
2022-10-14T11:12:03.410Z,13.13
2022-10-14T11:14:55.568Z,15.38
2022-10-14T11:17:41.924Z,15.80
2022-10-14T11:20:33.768Z,16.33
2022-10-14T11:23:22.645Z,15.10
2022-10-14T11:25:57.774Z,17.40
2022-10-14T11:28:51.295Z,14.90
2022-10-14T11:31:35.007Z,16.80
2022-10-14T11:34:28.680Z,13.05
2022-10-14T11:37:23.779Z,15.02
2022-10-14T11:39:58.056Z,12.55
2022-10-14T11:42:43.175Z,15.18
2022-10-14T11:45:21.305Z,13.37
2022-10-14T11:47:51.095Z,14.25
2022-10-14T11:50:29.401Z,12.57
2022-10-14T11:53:03.650Z,14.48
2022-10-14T11:55:36.029Z,14.60
2022-10-14T11:58:14.359Z,17.10
2022-10-14T12:01:16.354Z,13.65
2022-10-14T12:03:48.753Z,13.73
2022-10-14T12:06:21.886Z,14.90
2022-10-14T12:09:00.458Z,17.08
2022-10-14T12:11:35.613Z,13.60
2022-10-14T12:14:13.475Z,14.18
2022-10-14T12:16:44.805Z,14.02
2022-10-14T12:19:14.720Z,13.02
2022-10-14T12:22:16.555Z,14.23
2022-10-14T12:24:52.731Z,13.73
2022-10-14T12:27:21.570Z,13.50
2022-10-14T12:29:50.340Z,13.40
2022-10-14T12:32:16.870Z,11.60
2022-10-14T12:34:44.435Z,15.88
2022-10-14T12:37:35.267Z,13.97
2022-10-14T12:40:02.137Z,15.98
2022-10-14T12:42:59.406Z,17.17
2022-10-14T12:45:28.788Z,16.40
2022-10-14T12:48:04.783Z,17.10
2022-10-14T12:50:36.741Z,16.23
2022-10-14T12:53:06.938Z,14.98
2022-10-14T12:55:46.785Z,16.77
2022-10-14T12:58:24.095Z,17.55
2022-10-14T13:00:56.374Z,15.40
2022-10-14T13:03:27.375Z,15.67
2022-10-14T13:06:33.537Z,14.45
2022-10-14T13:09:12.219Z,15.18
2022-10-14T13:12:05.896Z,14.50
2022-10-14T13:14:53.357Z,14.82
2022-10-14T13:17:47.536Z,16.53
2022-10-14T13:20:35.512Z,16.42
2022-10-14T13:23:40.233Z,16.15
2022-10-14T13:26:06.963Z,14.13
2022-10-14T13:28:38.328Z,15.43
2022-10-14T13:33:52.981Z,15.63
2022-10-14T13:36:36.952Z,15.30
2022-10-14T13:39:03.720Z,13.35
2022-10-14T13:41:31.515Z,14.70
2022-10-14T13:44:00.849Z,14.10
2022-10-14T13:46:44.998Z,13.82
2022-10-14T13:49:20.622Z,13.00
2022-10-14T13:51:56.439Z,15.55
2022-10-14T13:54:26.133Z,13.90
2022-10-14T14:00:39.482Z,13.15
2022-10-14T14:02:44.818Z,13.88
2022-10-14T14:05:17.225Z,14.32
2022-10-14T14:08:30.108Z,13.63
2022-10-14T14:10:31.336Z,15.50
2022-10-14T14:13:01.766Z,13.45
2022-10-14T14:15:30.020Z,15.32
2022-10-14T14:17:56.537Z,13.80
2022-10-14T14:20:27.843Z,12.73
2022-10-14T14:22:57.374Z,11.70
2022-10-14T14:25:35.843Z,14.50
2022-10-14T14:28:07.923Z,14.40
2022-10-14T14:30:36.690Z,13.73
2022-10-14T14:33:07.058Z,13.55
2022-10-14T14:35:33.882Z,12.13
2022-10-14T14:38:00.483Z,14.13
2022-10-14T14:40:29.906Z,15.82
2022-10-14T14:43:00.010Z,14.10
2022-10-14T14:45:42.203Z,14.38
2022-10-14T14:48:12.865Z,13.17
2022-10-14T14:50:43.888Z,14.93
2022-10-14T14:53:11.327Z,16.55
2022-10-14T14:55:40.236Z,14.40
2022-10-14T14:58:20.067Z,16.55
2022-10-14T15:00:47.153Z,15.00
2022-10-14T15:03:13.683Z,13.55
2022-10-14T15:05:40.169Z,14.10
2022-10-14T15:08:18.911Z,13.90
2022-10-14T15:10:50.223Z,12.00
2022-10-14T15:13:47.493Z,12.17
2022-10-14T15:16:14.054Z,12.93
2022-10-14T15:18:43.440Z,14.00
2022-10-14T15:21:09.833Z,12.60
2022-10-14T15:23:48.203Z,14.30
2022-10-14T15:26:24.905Z,14.63
2022-10-14T15:29:10.243Z,12.77
2022-10-14T15:31:38.975Z,13.07
2022-10-14T15:34:06.118Z,16.42
2022-10-14T15:36:37.379Z,15.50
2022-10-14T15:39:03.887Z,12.77
2022-10-14T15:41:30.420Z,12.98
2022-10-14T15:43:56.878Z,13.25
2022-10-14T15:46:42.005Z,14.55
2022-10-14T15:49:18.483Z,13.10
2022-10-14T15:51:44.939Z,13.87
2022-10-14T15:54:15.095Z,13.70
2022-10-14T15:56:41.580Z,13.68
2022-10-14T15:59:08.074Z,14.27
2022-10-14T16:01:37.127Z,15.07
2022-10-14T16:04:03.894Z,15.07
2022-10-14T16:06:32.468Z,14.02
2022-10-14T16:08:59.099Z,13.57
2022-10-14T16:11:28.133Z,16.85
2022-10-14T16:13:54.642Z,15.35
2022-10-14T16:16:31.139Z,14.40
2022-10-14T16:18:58.042Z,17.98
2022-10-14T16:21:24.519Z,17.90
2022-10-14T16:23:53.672Z,18.10
2022-10-14T16:26:20.589Z,16.90
2022-10-14T16:28:47.668Z,18.60
2022-10-14T16:31:15.092Z,17.92
2022-10-14T16:33:44.811Z,19.25
2022-10-14T16:36:15.762Z,18.05
2022-10-14T16:38:42.461Z,18.73
2022-10-14T16:41:10.312Z,17.07
2022-10-14T16:43:37.178Z,18.77
2022-10-14T16:46:05.462Z,16.60
2022-10-14T16:48:35.660Z,18.38
2022-10-14T16:51:02.377Z,17.77
2022-10-14T16:53:43.650Z,20.30
2022-10-14T16:56:37.454Z,19.40
2022-10-14T16:59:05.007Z,19.13
2022-10-14T17:01:31.620Z,20.60
2022-10-14T17:03:58.080Z,17.83
2022-10-14T17:06:26.124Z,21.57
2022-10-14T17:08:53.707Z,19.55
2022-10-14T17:11:20.759Z,21.13
2022-10-14T17:13:50.487Z,17.23
2022-10-14T17:16:17.020Z,21.75
2022-10-14T17:18:43.741Z,20.33
2022-10-14T17:21:12.183Z,19.08
2022-10-14T17:23:43.869Z,19.20
2022-10-14T17:26:13.606Z,17.17
2022-10-14T17:28:41.413Z,34.55
2022-10-14T17:31:10.167Z,19.60
2022-10-14T17:33:37.863Z,27.17
2022-10-14T17:36:06.343Z,27.02
2022-10-14T17:38:34.350Z,27.02
2022-10-14T17:41:02.711Z,21.25
2022-10-14T17:43:29.240Z,22.07
2022-10-14T17:46:03.183Z,22.52
2022-10-14T17:48:30.602Z,22.48
2022-10-14T17:50:57.109Z,25.10
2022-10-14T17:53:24.007Z,25.65
2022-10-14T17:55:52.821Z,25.00
2022-10-14T17:58:21.883Z,25.23
2022-10-14T18:00:48.921Z,27.20
2022-10-14T18:03:15.406Z,24.35
2022-10-14T18:05:45.167Z,25.25
2022-10-14T18:08:14.854Z,27.27
2022-10-14T18:10:42.460Z,25.08
2022-10-14T18:13:08.935Z,24.52
2022-10-14T18:15:36.350Z,24.20
2022-10-14T18:18:02.940Z,25.17
2022-10-14T18:20:29.444Z,25.93
2022-10-14T18:22:55.989Z,24.83
2022-10-14T18:25:22.526Z,24.25
2022-10-14T18:27:49.269Z,23.27
2022-10-14T18:30:15.857Z,23.83
2022-10-14T18:32:42.334Z,24.40
2022-10-14T18:35:09.204Z,22.73
2022-10-14T18:37:35.702Z,24.38
2022-10-14T18:40:02.152Z,23.27
2022-10-14T18:42:28.693Z,23.33
2022-10-14T18:44:55.310Z,22.63
2022-10-14T18:47:21.716Z,25.30
2022-10-14T18:49:49.641Z,23.83
2022-10-14T18:52:18.747Z,24.70
2022-10-14T18:54:45.327Z,27.02
2022-10-14T18:57:14.921Z,25.67
2022-10-14T18:59:41.910Z,24.33
2022-10-14T19:02:13.111Z,23.67
2022-10-14T19:04:39.567Z,24.25
2022-10-14T19:07:07.183Z,24.35
2022-10-14T19:09:34.122Z,28.40
2022-10-14T19:12:01.111Z,25.90
2022-10-14T19:14:28.810Z,24.20
2022-10-14T19:16:55.387Z,24.33
2022-10-14T19:19:22.212Z,25.45
2022-10-14T19:21:50.431Z,22.90
2022-10-14T19:24:17.373Z,24.45
2022-10-14T19:26:45.879Z,25.67
2022-10-14T19:29:13.906Z,23.63
2022-10-14T19:31:40.985Z,27.23
2022-10-14T19:34:10.744Z,23.00
2022-10-14T19:36:39.295Z,23.90
2022-10-14T19:39:08.299Z,23.48
2022-10-14T19:41:38.392Z,25.88
2022-10-14T19:44:04.951Z,24.75
2022-10-14T19:46:31.462Z,23.73
2022-10-14T19:49:02.157Z,24.65
2022-10-14T19:51:28.964Z,24.17
2022-10-14T19:53:55.952Z,25.55
2022-10-14T19:56:23.154Z,25.33
2022-10-14T19:58:54.491Z,25.83
2022-10-14T20:01:23.729Z,25.25
2022-10-14T20:03:50.440Z,23.25
2022-10-14T20:06:17.009Z,25.23
2022-10-14T20:08:45.215Z,24.40
2022-10-14T20:11:17.382Z,24.63
2022-10-14T20:13:44.629Z,24.10
2022-10-14T20:16:11.925Z,23.05
2022-10-14T20:18:38.609Z,21.15
2022-10-14T20:21:06.797Z,21.25
2022-10-14T20:23:35.008Z,22.03
2022-10-14T20:26:03.951Z,20.88
2022-10-14T20:28:30.549Z,20.55
2022-10-14T20:30:57.566Z,20.27
2022-10-14T20:33:24.481Z,18.23
2022-10-14T20:36:13.796Z,20.23
2022-10-14T20:38:41.270Z,19.42
2022-10-14T20:41:19.117Z,19.48
2022-10-14T20:43:46.130Z,19.73
2022-10-14T20:46:12.934Z,17.88
2022-10-14T20:48:39.552Z,18.37
2022-10-14T20:51:07.888Z,16.38
2022-10-14T20:53:34.640Z,17.08
2022-10-14T20:56:03.217Z,17.67
2022-10-14T20:58:29.768Z,18.05
2022-10-14T21:01:10.769Z,16.13
2022-10-14T21:03:37.798Z,17.58
2022-10-14T21:06:06.582Z,17.58
2022-10-14T21:08:33.716Z,17.92
2022-10-14T21:11:02.127Z,19.02
2022-10-14T21:13:29.703Z,18.57
2022-10-14T21:15:56.703Z,18.10
2022-10-14T21:18:24.159Z,17.20
2022-10-14T21:23:23.119Z,15.93
2022-10-14T21:25:57.009Z,17.20
2022-10-14T21:28:24.081Z,16.67
2022-10-14T21:30:52.293Z,18.23
2022-10-14T21:33:19.129Z,17.27
2022-10-14T21:35:46.261Z,17.98
2022-10-14T21:38:12.782Z,16.83
2022-10-14T21:40:42.246Z,16.88
2022-10-14T21:43:08.693Z,17.65
2022-10-14T21:45:35.238Z,18.08
2022-10-14T21:48:01.739Z,18.38
2022-10-14T21:50:28.313Z,17.00
2022-10-14T21:52:55.152Z,18.98
2022-10-14T21:55:21.751Z,19.15
2022-10-14T21:57:48.309Z,19.17
2022-10-14T22:00:15.049Z,17.27
2022-10-14T22:02:42.330Z,17.80
2022-10-14T22:05:09.042Z,18.20
2022-10-14T22:07:35.533Z,19.92
2022-10-14T22:10:01.973Z,17.92
2022-10-14T22:12:29.879Z,19.05
2022-10-14T22:14:56.784Z,20.33
2022-10-14T22:17:23.683Z,18.17
2022-10-14T22:19:50.547Z,18.30
2022-10-14T22:22:17.090Z,18.92
2022-10-14T22:24:43.656Z,22.33
2022-10-14T22:27:10.209Z,19.83
2022-10-14T22:29:37.546Z,23.38
2022-10-14T22:32:04.530Z,21.67
2022-10-14T22:34:31.155Z,26.33
2022-10-14T22:36:59.521Z,21.67
2022-10-14T22:39:27.117Z,23.03
2022-10-14T22:41:53.886Z,22.63
2022-10-14T22:44:20.480Z,21.23
2022-10-14T22:46:47.178Z,23.38
2022-10-14T22:49:13.831Z,23.38
2022-10-14T22:51:40.949Z,26.03
2022-10-14T22:54:07.765Z,22.15
2022-10-14T22:56:34.366Z,22.17
2022-10-14T22:59:07.700Z,23.73
2022-10-14T23:01:34.882Z,22.27
2022-10-14T23:04:02.020Z,23.27
2022-10-14T23:06:29.573Z,25.63
2022-10-14T23:08:57.064Z,27.55
2022-10-14T23:11:24.942Z,21.58
2022-10-14T23:13:51.702Z,23.52
2022-10-14T23:16:20.749Z,25.13
2022-10-14T23:18:47.894Z,22.42
2022-10-14T23:21:18.208Z,26.15
2022-10-14T23:23:45.812Z,23.27
2022-10-14T23:26:14.516Z,25.75
2022-10-14T23:28:41.421Z,25.13
2022-10-14T23:31:13.905Z,25.83
2022-10-14T23:33:41.230Z,25.90
2022-10-14T23:36:10.397Z,25.95
2022-10-14T23:38:37.390Z,23.70
2022-10-14T23:41:04.953Z,24.53
2022-10-14T23:43:32.316Z,24.63
2022-10-14T23:45:58.921Z,28.75
2022-10-14T23:48:26.565Z,25.30
2022-10-14T23:50:56.711Z,25.23
2022-10-14T23:53:23.811Z,25.07
2022-10-14T23:55:50.405Z,22.27
2022-10-14T23:58:17.105Z,23.08
